This is the latest recevied weather packets stored in our database for station/object VK2XSE. If no packets are shown the sender has not sent any weather packets the latest 10 day(s).
| Time | Temp. | Humidity | Pressure | Rain* | Wind** | Luminosity | Snow |
|---|---|---|---|---|---|---|---|
| 1777794318 | 17.22° C | 91% | 1014.7 hPa | 6.6 mm | - | 0 W/m² | - |
| 1777793718 | 17.22° C | 91% | 1015 hPa | 6.1 mm | - | 0 W/m² | - |
| 1777793118 | 17.22° C | 90% | 1015.2 hPa | 5.08 mm | - | 0 W/m² | - |
| 1777792518 | 17.22° C | 88% | 1015.1 hPa | 3.56 mm | - | 0 W/m² | - |
| 1777791918 | 17.78° C | 84% | 1015.1 hPa | 0.76 mm | - | 0 W/m² | - |
| 1777791318 | 19.44° C | 78% | 1015.1 hPa | 0.51 mm | - | 0 W/m² | - |
| 1777790718 | 20.56° C | 76% | 1014.4 hPa | 0 mm | - | 4 W/m² | - |
| 1777790118 | 20.56° C | 75% | 1014.2 hPa | 0 mm | - | 9 W/m² | - |
| 1777789518 | 21.11° C | 71% | 1014.3 hPa | 0 mm | - | 11 W/m² | - |
| 1777788918 | 21.11° C | 71% | 1014.2 hPa | 0 mm | - | 10 W/m² | - |
| 1777788318 | 21.67° C | 70% | 1014 hPa | 0 mm | - | 29 W/m² | - |
| 1777787718 | 21.67° C | 70% | 1014.1 hPa | 0 mm | - | 34 W/m² | - |
| 1777787118 | 21.67° C | 69% | 1014.1 hPa | 0 mm | - | 30 W/m² | - |
| 1777786517 | 21.67° C | 69% | 1014 hPa | 0 mm | - | 42 W/m² | - |
| 1777785918 | 21.67° C | 69% | 1013.9 hPa | 0 mm | - | 66 W/m² | - |
| 1777785318 | 21.67° C | 69% | 1013.6 hPa | 0 mm | - | 117 W/m² | - |
| 1777784717 | 21.67° C | 69% | 1013.4 hPa | 0 mm | - | 102 W/m² | - |
| 1777784118 | 21.67° C | 69% | 1013.3 hPa | 0 mm | - | 58 W/m² | - |
| 1777783517 | 21.67° C | 69% | 1013.4 hPa | 0 mm | - | 39 W/m² | - |
| 1777782917 | 21.67° C | 69% | 1013.6 hPa | 0 mm | - | 43 W/m² | - |
| 1777782317 | 21.67° C | 69% | 1014 hPa | 0 mm | - | 51 W/m² | - |
| 1777781717 | 21.67° C | 70% | 1014.1 hPa | 0 mm | - | 57 W/m² | - |
| 1777781117 | 22.22° C | 70% | 1014.1 hPa | 0 mm | - | 79 W/m² | - |
| 1777780517 | 22.22° C | 67% | 1014.2 hPa | 0 mm | - | 84 W/m² | - |
| 1777779917 | 22.78° C | 65% | 1014.4 hPa | 0 mm | - | 72 W/m² | - |
* Rain latest hour (hover to see other rain measurements)
** Current wind speed in m/s (hover to see current wind gust speed)